Time;durP1;ratioP1;P1;durP2;ratioP2;P2;SDS_P1;SDS_P2;PMS_P1;PMS_P2;Temp;Humidity;BMP_temperature;BMP_pressure;BME280_temperature;BME280_humidity;BME280_pressure;Samples;Min_cycle;Max_cycle;Signal;HPM_P1;HPM_P2
2023/11/11 00:00:44;;;;;;;4.93;1.67;;;;;;;7.82;100.00;98551.78;5055814;28;20041;-74
2023/11/11 00:03:12;;;;;;;8.32;1.73;;;;;;;7.84;100.00;98560.44;5050648;28;20525;-75
2023/11/11 00:05:44;;;;;;;5.32;1.42;;;;;;;7.81;100.00;98560.63;5030691;28;20051;-75
2023/11/11 00:08:12;;;;;;;4.10;1.48;;;;;;;7.73;100.00;98526.88;5065460;28;20045;-74
2023/11/11 00:10:40;;;;;;;6.00;1.73;;;;;;;7.83;100.00;98550.00;5050029;28;20060;-73
2023/11/11 00:13:08;;;;;;;6.38;1.65;;;;;;;7.74;100.00;98528.56;5054007;28;20103;-74
2023/11/11 00:15:38;;;;;;;4.45;1.52;;;;;;;7.71;100.00;98541.13;5063693;28;20565;-73
2023/11/11 00:18:07;;;;;;;3.63;1.60;;;;;;;7.68;100.00;98538.66;5029717;28;20502;-75
2023/11/11 00:20:35;;;;;;;4.18;1.52;;;;;;;7.65;100.00;98526.53;5036385;28;20053;-74
2023/11/11 00:23:05;;;;;;;5.38;1.48;;;;;;;7.65;100.00;98528.31;5051014;28;20067;-74
2023/11/11 00:25:35;;;;;;;4.53;1.27;;;;;;;7.67;100.00;98518.53;5052880;28;20045;-75
2023/11/11 00:28:06;;;;;;;8.10;1.67;;;;;;;7.64;100.00;98527.47;5043981;28;20037;-73
2023/11/11 00:30:35;;;;;;;2.53;0.90;;;;;;;7.56;100.00;98519.22;5054611;28;20588;-74
2023/11/11 00:33:04;;;;;;;4.88;1.52;;;;;;;7.53;100.00;98529.13;5051224;28;20038;-74
2023/11/11 00:35:32;;;;;;;3.92;1.23;;;;;;;7.50;100.00;98524.03;5051275;28;20038;-73
2023/11/11 00:38:00;;;;;;;6.22;1.20;;;;;;;7.40;100.00;98515.88;5029335;28;20050;-74
2023/11/11 00:40:32;;;;;;;5.13;1.23;;;;;;;7.37;100.00;98498.50;5049723;28;20041;-74
2023/11/11 00:43:01;;;;;;;4.30;1.27;;;;;;;7.50;100.00;98529.31;5039482;28;20128;-74
2023/11/11 00:45:29;;;;;;;5.03;0.90;;;;;;;7.31;100.00;98512.03;5080649;28;20041;-74
2023/11/11 00:47:57;;;;;;;3.28;1.20;;;;;;;7.30;100.00;98513.00;5038284;28;20130;-73
2023/11/11 00:50:30;;;;;;;4.68;0.93;;;;;;;7.46;100.00;98523.38;5059251;28;20072;-74
2023/11/11 00:52:59;;;;;;;4.40;1.13;;;;;;;7.36;100.00;98520.50;5060296;28;20048;-74
2023/11/11 00:55:31;;;;;;;2.92;0.90;;;;;;;7.37;100.00;98526.63;5061027;28;20037;-74
2023/11/11 00:57:59;;;;;;;2.30;1.15;;;;;;;7.32;100.00;98519.00;5064286;28;20045;-74
2023/11/11 01:00:28;;;;;;;5.55;1.27;;;;;;;7.39;100.00;98511.56;5067027;28;20037;-73
2023/11/11 01:02:58;;;;;;;4.35;1.50;;;;;;;7.31;100.00;98519.94;5072106;28;20040;-73
2023/11/11 01:05:26;;;;;;;2.53;1.10;;;;;;;7.36;100.00;98531.03;5075268;28;20044;-71
2023/11/11 01:07:55;;;;;;;3.63;1.17;;;;;;;7.39;100.00;98524.75;5060609;28;20079;-73
2023/11/11 01:10:24;;;;;;;3.17;0.98;;;;;;;7.40;100.00;98531.66;5053531;28;20057;-72
2023/11/11 01:12:54;;;;;;;6.15;1.77;;;;;;;7.34;100.00;98530.28;5047523;28;20042;-72
2023/11/11 01:15:25;;;;;;;6.57;1.60;;;;;;;7.27;100.00;98543.91;5045329;28;20053;-72
2023/11/11 01:17:57;;;;;;;3.30;1.48;;;;;;;7.18;100.00;98537.47;5044156;28;20135;-72
2023/11/11 01:20:27;;;;;;;3.47;1.60;;;;;;;7.12;100.00;98534.34;5055066;28;20034;-71
2023/11/11 01:22:55;;;;;;;8.10;1.95;;;;;;;7.10;100.00;98550.25;5054698;28;20076;-72
2023/11/11 01:25:23;;;;;;;5.18;1.55;;;;;;;7.07;100.00;98553.09;5050120;28;20057;-72
2023/11/11 01:27:57;;;;;;;7.65;2.40;;;;;;;7.02;100.00;98548.09;5028709;28;20064;-72
2023/11/11 01:30:25;;;;;;;7.90;2.28;;;;;;;6.96;100.00;98545.84;5047689;28;20045;-73
2023/11/11 01:32:53;;;;;;;5.72;2.53;;;;;;;6.95;100.00;98541.50;5058544;28;20043;-73
2023/11/11 01:35:22;;;;;;;5.82;2.30;;;;;;;6.97;100.00;98549.31;5044115;28;20632;-75
2023/11/11 01:37:51;;;;;;;5.72;2.28;;;;;;;6.95;100.00;98556.44;5060339;28;20408;-74
2023/11/11 01:40:19;;;;;;;5.07;2.28;;;;;;;6.84;100.00;98545.75;5035575;28;20051;-75
2023/11/11 01:42:50;;;;;;;4.30;2.63;;;;;;;6.94;100.00;98560.88;5054447;28;20067;-75
2023/11/11 01:45:20;;;;;;;5.30;3.03;;;;;;;6.94;100.00;98567.91;5051234;28;20280;-75
2023/11/11 01:47:50;;;;;;;5.70;3.20;;;;;;;6.94;100.00;98573.16;5024772;28;20099;-74
2023/11/11 01:50:18;;;;;;;9.13;3.73;;;;;;;6.95;100.00;98578.34;5069242;28;20045;-74
2023/11/11 01:52:49;;;;;;;8.18;3.70;;;;;;;6.93;100.00;98572.31;5030416;28;20068;-74
2023/11/11 01:55:17;;;;;;;8.20;4.03;;;;;;;6.94;100.00;98586.34;5055078;28;20114;-73
2023/11/11 01:57:45;;;;;;;7.53;3.40;;;;;;;6.94;100.00;98599.50;5037924;28;20225;-73
2023/11/11 02:00:14;;;;;;;5.53;2.63;;;;;;;6.80;100.00;98602.09;5049035;28;20091;-72
2023/11/11 02:02:48;;;;;;;3.00;0.80;;;;;;;6.53;100.00;98608.09;5050941;28;20083;-73
2023/11/11 02:05:16;;;;;;;1.02;0.52;;;;;;;6.21;100.00;98624.88;5032960;28;20137;-73
2023/11/11 02:07:44;;;;;;;0.95;0.30;;;;;;;6.02;100.00;98618.97;5042455;28;20060;-72
2023/11/11 02:10:15;;;;;;;0.25;0.10;;;;;;;5.90;100.00;98618.75;5035959;28;20059;-75
2023/11/11 02:12:43;;;;;;;0.52;0.20;;;;;;;5.83;100.00;98605.97;5048075;28;20502;-72
2023/11/11 02:15:14;;;;;;;0.88;0.10;;;;;;;5.75;100.00;98616.09;5046449;28;20178;-72
2023/11/11 02:17:43;;;;;;;0.15;0.10;;;;;;;5.74;100.00;98622.28;5068228;28;20049;-72
2023/11/11 02:20:14;;;;;;;0.57;0.20;;;;;;;5.67;100.00;98621.75;5049114;28;20095;-72
2023/11/11 02:22:42;;;;;;;0.22;0.20;;;;;;;5.62;100.00;98613.31;5046139;28;20044;-72
2023/11/11 02:25:14;;;;;;;1.25;0.15;;;;;;;5.68;100.00;98647.06;5046278;28;20072;-71
2023/11/11 02:27:46;;;;;;;1.08;0.10;;;;;;;5.67;100.00;98655.88;5044452;28;20132;-71
2023/11/11 02:30:15;;;;;;;0.05;0.00;;;;;;;5.70;100.00;98670.63;5048302;28;20049;-72
2023/11/11 02:32:45;;;;;;;1.58;0.10;;;;;;;5.70;100.00;98671.47;5034921;28;20132;-72
2023/11/11 02:35:13;;;;;;;0.32;0.10;;;;;;;5.72;100.00;98688.00;5050714;28;20144;-72
2023/11/11 02:37:41;;;;;;;0.50;0.20;;;;;;;5.73;100.00;98702.84;5037759;28;20033;-72
2023/11/11 02:40:12;;;;;;;0.40;0.20;;;;;;;5.75;100.00;98694.88;5052047;28;20049;-72
2023/11/11 02:42:44;;;;;;;0.47;0.20;;;;;;;5.76;100.00;98709.72;5048685;28;20060;-72
2023/11/11 02:45:13;;;;;;;0.50;0.10;;;;;;;5.75;100.00;98708.00;5050525;28;20419;-72
2023/11/11 02:47:42;;;;;;;0.40;0.20;;;;;;;5.79;100.00;98723.53;5043647;28;20164;-72
2023/11/11 02:50:10;;;;;;;1.13;0.40;;;;;;;5.81;100.00;98732.19;5065296;28;20059;-73
2023/11/11 02:52:40;;;;;;;0.20;0.20;;;;;;;5.83;100.00;98745.19;5050135;28;20049;-71
2023/11/11 02:55:09;;;;;;;0.35;0.20;;;;;;;5.78;100.00;98740.22;5047859;28;20102;-72
2023/11/11 02:57:38;;;;;;;1.38;0.30;;;;;;;5.84;100.00;98757.41;5042223;28;20056;-71
2023/11/11 03:00:10;;;;;;;0.22;0.22;;;;;;;5.84;100.00;98760.03;5046309;28;20416;-71
2023/11/11 03:02:40;;;;;;;0.40;0.20;;;;;;;5.83;100.00;98772.31;5041284;28;20068;-71
2023/11/11 03:05:10;;;;;;;0.60;0.22;;;;;;;5.81;100.00;98770.72;5050498;28;20053;-70
2023/11/11 03:07:41;;;;;;;0.20;0.20;;;;;;;5.81;100.00;98776.84;5047506;28;20048;-71
2023/11/11 03:10:10;;;;;;;0.73;0.30;;;;;;;5.80;100.00;98784.78;5061312;28;20041;-71
2023/11/11 03:12:39;;;;;;;0.20;0.20;;;;;;;5.74;100.00;98783.31;5065728;28;20135;-71
2023/11/11 03:15:11;;;;;;;0.50;0.20;;;;;;;5.79;100.00;98786.56;5051053;28;20060;-71
2023/11/11 03:17:42;;;;;;;0.90;0.20;;;;;;;5.83;100.00;98795.97;5061499;28;20053;-71
2023/11/11 03:20:11;;;;;;;0.45;0.30;;;;;;;5.83;100.00;98801.22;5043810;28;20045;-71
2023/11/11 03:22:40;;;;;;;1.35;0.40;;;;;;;5.78;100.00;98795.38;5051031;28;20049;-73
2023/11/11 03:25:11;;;;;;;1.02;0.30;;;;;;;5.87;100.00;98815.88;5047514;28;20407;-72
2023/11/11 03:27:39;;;;;;;0.73;0.35;;;;;;;5.83;100.00;98803.00;5059704;28;20044;-72
2023/11/11 03:30:10;;;;;;;0.57;0.32;;;;;;;5.91;100.00;98827.97;5049789;28;20538;-71
2023/11/11 03:32:41;;;;;;;0.70;0.40;;;;;;;5.95;100.00;98821.63;5049950;28;20080;-71
2023/11/11 03:35:09;;;;;;;0.82;0.50;;;;;;;5.95;100.00;98836.53;5056364;28;20041;-71
2023/11/11 03:37:37;;;;;;;0.60;0.40;;;;;;;5.87;100.00;98818.50;5048828;28;20033;-72
2023/11/11 03:40:10;;;;;;;1.00;0.30;;;;;;;5.95;100.00;98839.19;5051805;28;20122;-72
2023/11/11 03:42:38;;;;;;;0.40;0.30;;;;;;;5.96;100.00;98840.88;5067712;28;20069;-72
2023/11/11 03:45:10;;;;;;;0.80;0.38;;;;;;;5.96;100.00;98846.13;5053109;28;20124;-72
2023/11/11 03:47:40;;;;;;;;;;;;;;;5.98;100.00;98854.78;5048569;28;20705;-71
2023/11/11 03:50:08;;;;;;;0.65;0.38;;;;;;;5.96;100.00;98857.50;5048228;28;19925;-72
2023/11/11 03:52:38;;;;;;;0.30;0.30;;;;;;;5.96;100.00;98864.53;5045234;28;20045;-72
2023/11/11 03:55:10;;;;;;;0.40;0.30;;;;;;;5.93;100.00;98862.91;5047079;28;20045;-71
2023/11/11 03:57:38;;;;;;;0.30;0.30;;;;;;;5.92;100.00;98874.34;5061198;28;20049;-71
2023/11/11 04:00:19;;;;;;;0.40;0.40;;;;;;;5.90;100.00;98878.81;5046197;28;20049;-72
2023/11/11 04:02:48;;;;;;;0.50;0.45;;;;;;;5.90;100.00;98894.56;5051798;28;20045;-72
2023/11/11 04:05:18;;;;;;;0.88;0.50;;;;;;;5.94;100.00;98900.53;5050057;28;20048;-72
2023/11/11 04:07:47;;;;;;;0.50;0.43;;;;;;;5.94;100.00;98898.75;5018635;28;20084;-71
2023/11/11 04:10:18;;;;;;;1.08;0.70;;;;;;;5.95;100.00;98910.97;5044289;28;20575;-71
2023/11/11 04:12:47;;;;;;;1.58;0.80;;;;;;;5.99;100.00;98909.84;5054990;28;20060;-73
2023/11/11 04:15:19;;;;;;;1.27;1.10;;;;;;;6.01;100.00;98911.56;5047305;28;20049;-72
2023/11/11 04:17:49;;;;;;;1.52;1.30;;;;;;;6.00;100.00;98918.59;5032995;28;20045;-71
2023/11/11 04:20:17;;;;;;;2.75;1.52;;;;;;;6.03;100.00;98922.84;5058517;28;20053;-71
2023/11/11 04:22:48;;;;;;;1.95;1.60;;;;;;;5.98;100.00;98921.28;5047638;28;20048;-71
2023/11/11 04:25:17;;;;;;;2.03;1.40;;;;;;;6.01;100.00;98927.31;5035555;28;20115;-72
2023/11/11 04:27:47;;;;;;;4.05;2.05;;;;;;;6.09;100.00;98938.28;5049069;28;20121;-72
2023/11/11 04:30:22;;;;;;;2.85;1.60;;;;;;;6.11;100.00;98933.81;5059765;28;20053;-72
2023/11/11 04:32:50;;;;;;;4.28;1.75;;;;;;;6.18;100.00;98943.06;5051943;28;20069;-71
2023/11/11 04:35:21;;;;;;;3.97;1.70;;;;;;;6.14;100.00;98945.00;5049763;28;20049;-73
2023/11/11 04:37:51;;;;;;;1.67;1.55;;;;;;;6.10;100.00;98946.09;5052046;28;20048;-70
2023/11/11 04:40:19;;;;;;;3.45;1.98;;;;;;;6.10;100.00;98954.00;5045234;28;20060;-71
2023/11/11 04:42:47;;;;;;;3.65;2.20;;;;;;;6.17;100.00;98957.97;5051136;28;20060;-72
2023/11/11 04:45:18;;;;;;;3.22;2.17;;;;;;;6.22;100.00;98960.38;5054487;28;20518;-73
2023/11/11 04:47:52;;;;;;;3.58;2.40;;;;;;;6.32;100.00;98959.81;5056143;28;20041;-71
2023/11/11 04:50:20;;;;;;;2.20;2.00;;;;;;;6.29;100.00;98953.88;5022469;28;20063;-71
2023/11/11 04:52:49;;;;;;;2.25;2.00;;;;;;;6.33;100.00;98968.56;5055491;28;20045;-72
2023/11/11 04:55:17;;;;;;;3.60;2.47;;;;;;;6.33;100.00;98976.44;5050322;28;20138;-71
2023/11/11 04:57:47;;;;;;;3.87;2.40;;;;;;;6.24;100.00;98974.31;5066639;28;20049;-71
2023/11/11 05:00:18;;;;;;;3.35;2.22;;;;;;;6.17;100.00;98978.16;5042963;28;20502;-72
2023/11/11 05:02:48;;;;;;;3.33;2.70;;;;;;;6.20;100.00;98983.25;5046667;28;20049;-72
2023/11/11 05:05:20;;;;;;;3.10;2.80;;;;;;;6.29;100.00;98975.78;5049210;28;20056;-71
2023/11/11 05:07:50;;;;;;;3.35;2.90;;;;;;;6.26;100.00;98986.44;5051554;28;20045;-71
2023/11/11 05:10:19;;;;;;;6.13;3.00;;;;;;;6.23;100.00;98985.75;5041233;28;20045;-71
2023/11/11 05:12:51;;;;;;;4.10;2.83;;;;;;;6.14;100.00;98992.31;5048652;28;20046;-72
2023/11/11 05:15:23;;;;;;;5.88;2.90;;;;;;;6.13;100.00;99005.56;5050251;28;20044;-72
2023/11/11 05:17:52;;;;;;;5.00;3.10;;;;;;;6.06;100.00;99010.25;5054018;28;20037;-72
2023/11/11 05:20:22;;;;;;;3.58;3.25;;;;;;;6.04;100.00;99006.84;5058036;28;20128;-71
2023/11/11 05:22:49;;;;;;;4.43;3.08;;;;;;;6.08;100.00;99018.06;5053716;28;20110;-71
2023/11/11 05:25:19;;;;;;;5.38;3.70;;;;;;;6.12;100.00;99033.59;5051548;28;20055;-71
2023/11/11 05:27:51;;;;;;;7.07;3.63;;;;;;;6.12;100.00;99032.75;5051030;28;20779;-71
2023/11/11 05:30:22;;;;;;;;;;;;;;;6.16;100.00;99043.03;5046983;28;20053;-71
2023/11/11 05:32:52;;;;;;;6.68;3.80;;;;;;;6.17;100.00;99046.50;5046028;28;20186;-72
2023/11/11 05:35:24;;;;;;;5.55;2.85;;;;;;;6.13;100.00;99030.06;5049577;28;20053;-71
2023/11/11 05:37:53;;;;;;;7.13;3.50;;;;;;;6.24;100.00;99058.41;5049557;28;20052;-72
2023/11/11 05:40:22;;;;;;;5.00;3.05;;;;;;;6.27;100.00;99066.16;5042172;28;20049;-72
2023/11/11 05:42:52;;;;;;;5.20;3.10;;;;;;;6.27;100.00;99064.38;5052904;28;20052;-70
2023/11/11 05:45:20;;;;;;;4.13;3.00;;;;;;;6.27;100.00;99069.63;5057043;28;20470;-72
2023/11/11 05:47:49;;;;;;;6.55;3.53;;;;;;;6.31;100.00;99079.03;5052382;28;20128;-70
2023/11/11 05:50:17;;;;;;;4.22;3.08;;;;;;;6.33;100.00;99077.19;5040717;28;20076;-71
2023/11/11 05:52:46;;;;;;;5.90;3.30;;;;;;;6.32;100.00;99080.75;5052728;28;20045;-71
2023/11/11 05:55:15;;;;;;;4.70;3.22;;;;;;;6.34;100.00;99081.53;5050424;28;20041;-71
2023/11/11 05:57:44;;;;;;;3.55;2.95;;;;;;;6.21;100.00;99061.19;5052084;28;20041;-70
2023/11/11 06:00:13;;;;;;;8.85;2.97;;;;;;;6.34;100.00;99083.31;5041119;28;20059;-72
2023/11/11 06:02:42;;;;;;;6.85;2.90;;;;;;;6.39;100.00;99091.81;5056748;28;20048;-71
2023/11/11 06:05:10;;;;;;;4.50;2.53;;;;;;;6.38;100.00;99092.75;5052592;28;20091;-71
2023/11/11 06:07:39;;;;;;;4.75;2.55;;;;;;;6.36;100.00;99093.75;5071122;28;20292;-71
2023/11/11 06:10:12;;;;;;;3.50;2.30;;;;;;;6.38;100.00;99105.03;5050754;28;20063;-72
2023/11/11 06:12:40;;;;;;;4.90;2.47;;;;;;;6.36;100.00;99118.25;5059379;28;20076;-73
2023/11/11 06:15:09;;;;;;;3.30;2.13;;;;;;;6.30;100.00;99115.91;5053197;28;20036;-71
2023/11/11 06:17:37;;;;;;;6.25;1.80;;;;;;;6.21;100.00;99108.50;5048812;28;20145;-70
2023/11/11 06:20:09;;;;;;;5.20;1.90;;;;;;;6.19;100.00;99126.13;5042950;28;20029;-73
2023/11/11 06:22:39;;;;;;;4.75;1.98;;;;;;;6.12;100.00;99122.97;5063726;28;20308;-70
2023/11/11 06:25:10;;;;;;;5.13;2.33;;;;;;;6.15;100.00;99145.59;5053665;28;20049;-70
2023/11/11 06:27:40;;;;;;;5.05;2.67;;;;;;;6.08;100.00;99138.94;5048611;28;20060;-70
2023/11/11 06:30:09;;;;;;;4.10;2.60;;;;;;;6.12;100.00;99145.78;5010679;28;20115;-71
2023/11/11 06:32:39;;;;;;;4.88;2.35;;;;;;;6.11;100.00;99146.69;5050951;28;20103;-71
2023/11/11 06:35:12;;;;;;;8.38;2.90;;;;;;;6.06;100.00;99143.44;5032823;28;20140;-71
2023/11/11 06:37:40;;;;;;;3.70;2.50;;;;;;;6.05;100.00;99157.50;5050493;28;20053;-71
2023/11/11 06:40:13;;;;;;;5.22;2.78;;;;;;;6.06;100.00;99161.81;5039566;28;20045;-71
2023/11/11 06:42:41;;;;;;;3.22;2.10;;;;;;;6.04;100.00;99164.53;5049729;28;20044;-73
2023/11/11 06:45:14;;;;;;;4.43;2.83;;;;;;;6.03;100.00;99175.09;5049676;28;20579;-73
2023/11/11 06:47:45;;;;;;;4.32;2.50;;;;;;;6.03;100.00;99172.47;5048201;28;20033;-72
2023/11/11 06:50:16;;;;;;;7.63;3.22;;;;;;;6.00;100.00;99178.72;5041592;28;20056;-71
2023/11/11 06:52:45;;;;;;;3.72;2.70;;;;;;;6.02;100.00;99176.88;5042733;28;20123;-71
2023/11/11 06:55:14;;;;;;;4.10;2.92;;;;;;;6.05;100.00;99178.50;5050202;28;20060;-72
2023/11/11 06:57:42;;;;;;;5.75;2.72;;;;;;;6.04;100.00;99184.69;5051060;28;20092;-71
2023/11/11 07:00:15;;;;;;;8.25;2.40;;;;;;;6.05;100.00;99184.63;5045236;28;20801;-72
2023/11/11 07:02:47;;;;;;;2.97;2.40;;;;;;;6.08;100.00;99191.50;5056171;28;20099;-72
2023/11/11 07:05:17;;;;;;;3.05;2.40;;;;;;;6.11;100.00;99199.25;5050420;28;20053;-71
2023/11/11 07:07:47;;;;;;;5.30;2.13;;;;;;;6.09;100.00;99201.97;5048703;28;20178;-71
2023/11/11 07:10:17;;;;;;;4.28;2.17;;;;;;;6.04;100.00;99185.53;5055131;28;21697;-71
2023/11/11 07:12:51;;;;;;;5.30;2.15;;;;;;;6.17;100.00;99212.09;5051651;28;20029;-71
2023/11/11 07:15:20;;;;;;;5.40;1.80;;;;;;;6.19;100.00;99221.59;5047257;28;20056;-71
2023/11/11 07:17:49;;;;;;;2.73;2.20;;;;;;;6.18;100.00;99222.53;5047097;28;20871;-70
2023/11/11 07:20:19;;;;;;;3.85;2.10;;;;;;;6.19;100.00;99229.50;5015533;28;20044;-70
2023/11/11 07:22:47;;;;;;;3.53;2.00;;;;;;;6.24;100.00;99226.66;5062106;28;20049;-70
2023/11/11 07:25:23;;;;;;;4.15;2.28;;;;;;;6.21;100.00;99224.16;5048345;28;20052;-70
2023/11/11 07:27:51;;;;;;;3.47;1.70;;;;;;;6.24;100.00;99224.88;5037870;28;20107;-71
2023/11/11 07:30:20;;;;;;;2.58;1.80;;;;;;;6.32;100.00;99242.91;5040096;28;20176;-71
2023/11/11 07:32:50;;;;;;;3.00;1.67;;;;;;;6.41;100.00;99246.88;5075617;28;20051;-71
2023/11/11 07:35:31;;;;;;;2.33;1.25;;;;;;;6.46;100.00;99244.84;5048493;28;20114;-71
2023/11/11 07:38:04;;;;;;;3.63;1.30;;;;;;;6.48;100.00;99241.22;5031709;28;20295;-71
2023/11/11 07:40:34;;;;;;;2.47;1.08;;;;;;;6.50;100.00;99252.53;5034882;28;20095;-71
2023/11/11 07:43:03;;;;;;;4.32;1.08;;;;;;;6.48;100.00;99248.28;5026533;28;20045;-72
2023/11/11 07:45:33;;;;;;;5.65;1.20;;;;;;;6.46;100.00;99250.13;5037302;28;20144;-74
2023/11/11 07:48:00;;;;;;;2.28;1.08;;;;;;;6.47;100.00;99257.09;5030112;28;20525;-72
2023/11/11 07:50:30;;;;;;;2.67;1.13;;;;;;;6.39;100.00;99249.59;5039716;28;20055;-72
2023/11/11 07:52:59;;;;;;;2.17;1.15;;;;;;;6.42;100.00;99259.97;5058296;28;20052;-71
2023/11/11 07:55:27;;;;;;;1.93;0.90;;;;;;;6.43;100.00;99272.19;5041924;28;20783;-72
2023/11/11 07:57:56;;;;;;;3.40;1.30;;;;;;;6.39;100.00;99269.75;5046352;28;20501;-72
2023/11/11 08:00:33;;;;;;;2.97;1.00;;;;;;;6.34;100.00;99264.72;5036543;28;20056;-71
2023/11/11 08:03:03;;;;;;;3.25;1.25;;;;;;;6.38;100.00;99273.31;5051456;28;20038;-74
2023/11/11 08:05:32;;;;;;;3.88;1.10;;;;;;;6.36;100.00;99278.66;5060573;28;20502;-72
2023/11/11 08:08:01;;;;;;;2.45;1.02;;;;;;;6.32;100.00;99277.06;5042216;28;20051;-73
2023/11/11 08:10:32;;;;;;;1.23;1.00;;;;;;;6.35;100.00;99287.47;5053956;28;20049;-72
2023/11/11 08:13:03;;;;;;;4.15;1.13;;;;;;;6.35;100.00;99287.47;5028808;28;20045;-72
2023/11/11 08:15:31;;;;;;;5.05;1.63;;;;;;;6.40;100.00;99289.88;5024931;28;20152;-73
2023/11/11 08:18:01;;;;;;;4.55;1.35;;;;;;;6.38;100.00;99300.47;5046013;28;20040;-74
2023/11/11 08:20:30;;;;;;;1.27;1.13;;;;;;;6.42;100.00;99306.44;5025007;28;20077;-73
2023/11/11 08:23:02;;;;;;;4.32;1.30;;;;;;;6.43;100.00;99295.84;5045743;28;20474;-71
2023/11/11 08:25:35;;;;;;;1.95;1.15;;;;;;;6.45;100.00;99291.38;5051116;28;20132;-72
2023/11/11 08:28:07;;;;;;;2.30;1.40;;;;;;;6.59;100.00;99309.13;5049997;28;20481;-72
2023/11/11 08:30:40;;;;;;;1.60;1.10;;;;;;;6.65;100.00;99307.03;5045233;28;20065;-73
2023/11/11 08:33:11;;;;;;;2.17;0.95;;;;;;;6.71;100.00;99311.16;5057604;28;20083;-72
2023/11/11 08:35:40;;;;;;;6.93;1.33;;;;;;;6.77;100.00;99313.47;5048441;28;20045;-72
2023/11/11 08:38:08;;;;;;;4.25;1.13;;;;;;;6.85;100.00;99326.25;5053503;28;20040;-73
2023/11/11 08:40:36;;;;;;;3.55;1.13;;;;;;;6.88;100.00;99323.50;5051096;28;22021;-73
2023/11/11 08:43:04;;;;;;;3.03;1.20;;;;;;;6.99;100.00;99331.69;5069028;28;20033;-72
2023/11/11 08:45:35;;;;;;;2.03;1.30;;;;;;;7.04;100.00;99335.81;5067355;28;20072;-74
2023/11/11 08:48:04;;;;;;;2.92;1.52;;;;;;;7.12;100.00;99339.84;5032327;28;20057;-73
2023/11/11 08:50:32;;;;;;;2.17;1.40;;;;;;;7.18;100.00;99342.19;5043743;28;20053;-73
2023/11/11 08:53:01;;;;;;;4.22;1.92;;;;;;;7.31;100.00;99341.47;5049540;28;20131;-74
2023/11/11 08:55:29;;;;;;;2.95;1.95;;;;;;;7.39;100.00;99338.47;5058984;28;20052;-73
2023/11/11 08:57:58;;;;;;;4.10;1.90;;;;;;;7.40;100.00;99337.53;5053610;28;20049;-73
2023/11/11 09:00:26;;;;;;;2.30;1.80;;;;;;;7.43;100.00;99341.78;5046635;28;20640;-73
2023/11/11 09:02:56;;;;;;;3.97;2.13;;;;;;;7.48;100.00;99345.03;5050395;28;20064;-73
2023/11/11 09:05:26;;;;;;;4.57;1.80;;;;;;;7.41;100.00;99341.84;5055271;28;20048;-73
2023/11/11 09:07:54;;;;;;;4.88;2.08;;;;;;;7.37;100.00;99346.44;5053046;28;20129;-74
2023/11/11 09:10:22;;;;;;;24.35;16.63;;;;;;;7.52;100.00;99344.81;5050319;28;20107;-74
2023/11/11 09:12:52;;;;;;;5.03;2.20;;;;;;;7.73;100.00;99353.38;5047598;28;20044;-73
2023/11/11 09:15:21;;;;;;;6.40;2.05;;;;;;;7.80;100.00;99341.59;5050743;28;20128;-74
2023/11/11 09:17:49;;;;;;;3.38;1.95;;;;;;;7.98;100.00;99360.88;5054356;28;20551;-73
2023/11/11 09:20:21;;;;;;;2.92;2.17;;;;;;;8.00;100.00;99366.94;5048960;28;20072;-74
2023/11/11 09:22:50;;;;;;;3.58;2.03;;;;;;;8.01;100.00;99358.94;5065980;28;20049;-73
2023/11/11 09:25:18;;;;;;;5.15;2.20;;;;;;;8.14;100.00;99374.09;5046218;28;20441;-74
2023/11/11 09:27:47;;;;;;;5.05;2.38;;;;;;;8.20;100.00;99373.75;5049461;28;20079;-73
2023/11/11 09:30:17;;;;;;;4.70;2.33;;;;;;;8.18;100.00;99378.28;5051570;28;20449;-75
2023/11/11 09:32:46;;;;;;;3.83;2.22;;;;;;;8.39;100.00;99385.91;5043244;28;20037;-74
2023/11/11 09:35:15;;;;;;;3.35;2.10;;;;;;;8.38;100.00;99389.47;5034413;28;20169;-75
2023/11/11 09:37:45;;;;;;;6.07;2.47;;;;;;;8.27;100.00;99391.81;5057399;28;20045;-74
2023/11/11 09:40:14;;;;;;;4.03;2.38;;;;;;;8.06;100.00;99393.81;5048627;28;20057;-74
2023/11/11 09:42:43;;;;;;;5.57;2.55;;;;;;;7.88;100.00;99393.91;5051025;28;20052;-74
2023/11/11 09:45:13;;;;;;;5.25;2.45;;;;;;;7.77;100.00;99385.72;5034440;28;20069;-73
2023/11/11 09:47:46;;;;;;;5.00;2.50;;;;;;;7.74;100.00;99394.63;5047497;28;20043;-74
2023/11/11 09:50:15;;;;;;;5.57;2.72;;;;;;;7.68;100.00;99397.59;5049544;28;20529;-75
2023/11/11 09:52:49;;;;;;;5.75;2.72;;;;;;;7.70;100.00;99401.84;5044807;28;20580;-74
2023/11/11 09:55:17;;;;;;;4.07;2.30;;;;;;;7.80;100.00;99396.09;5061909;28;20053;-74
2023/11/11 09:57:48;;;;;;;;;;;;;;;7.85;100.00;99404.63;5035446;28;20041;-73
2023/11/11 10:00:19;;;;;;;3.75;2.20;;;;;;;7.80;100.00;99396.09;5051668;28;19968;-74
2023/11/11 10:02:47;;;;;;;6.55;3.05;;;;;;;7.74;100.00;99403.38;5046062;28;20043;-74
2023/11/11 10:05:16;;;;;;;6.85;2.55;;;;;;;7.75;100.00;99398.97;5050772;28;20502;-76
2023/11/11 10:07:46;;;;;;;2.88;2.00;;;;;;;7.76;100.00;99405.94;5053978;28;20045;-74
2023/11/11 10:10:17;;;;;;;6.03;1.98;;;;;;;7.71;100.00;99394.81;5060229;28;20046;-75
2023/11/11 10:12:45;;;;;;;5.22;2.22;;;;;;;7.72;100.00;99404.38;5047067;28;20085;-73
2023/11/11 10:15:14;;;;;;;4.00;2.05;;;;;;;7.79;100.00;99399.66;5036827;28;20216;-75
2023/11/11 10:17:42;;;;;;;3.47;1.90;;;;;;;7.75;100.00;99394.53;5050434;28;20045;-74
2023/11/11 10:20:13;;;;;;;6.30;1.90;;;;;;;7.82;100.00;99399.50;5055039;28;20486;-73
2023/11/11 10:22:45;;;;;;;5.15;2.00;;;;;;;7.84;100.00;99403.78;5048073;28;20071;-73
2023/11/11 10:25:17;;;;;;;3.05;1.92;;;;;;;7.90;100.00;99406.06;5054376;28;20463;-74
2023/11/11 10:27:51;;;;;;;3.63;2.15;;;;;;;7.86;100.00;99396.66;5069908;28;20055;-75
2023/11/11 10:30:25;;;;;;;3.58;2.13;;;;;;;7.98;100.00;99401.28;5053193;28;20041;-73
2023/11/11 10:32:54;;;;;;;5.18;2.00;;;;;;;8.00;100.00;99394.13;5046249;28;20103;-74
2023/11/11 10:35:24;;;;;;;5.97;1.65;;;;;;;7.94;100.00;99409.41;5051408;28;20052;-75
2023/11/11 10:37:54;;;;;;;3.90;1.77;;;;;;;7.92;100.00;99406.84;5049168;28;20053;-73
2023/11/11 10:40:25;;;;;;;4.67;1.63;;;;;;;7.91;100.00;99407.78;5049082;28;20047;-74
2023/11/11 10:42:54;;;;;;;4.88;1.73;;;;;;;7.84;100.00;99392.38;5044709;28;20563;-74
2023/11/11 10:45:22;;;;;;;2.58;1.63;;;;;;;7.90;100.00;99408.72;5049855;28;20115;-74
2023/11/11 10:47:52;;;;;;;4.32;1.77;;;;;;;7.80;100.00;99404.00;5051543;28;20045;-74
2023/11/11 10:50:22;;;;;;;6.55;2.38;;;;;;;7.73;100.00;99414.84;5053166;28;20041;-74
2023/11/11 10:52:54;;;;;;;4.80;1.45;;;;;;;7.60;100.00;99410.28;5040118;28;20128;-74
2023/11/11 10:55:28;;;;;;;3.20;1.30;;;;;;;7.60;100.00;99408.50;5055304;28;20120;-76
2023/11/11 10:57:57;;;;;;;3.45;1.45;;;;;;;7.63;100.00;99413.63;5052209;28;20048;-74
2023/11/11 11:00:27;;;;;;;4.03;1.48;;;;;;;7.61;100.00;99407.56;5052494;28;20288;-74
2023/11/11 11:02:56;;;;;;;4.15;1.60;;;;;;;7.66;100.00;99413.47;5062575;28;20057;-74
2023/11/11 11:05:31;;;;;;;4.03;1.30;;;;;;;7.67;100.00;99416.97;5052980;28;20754;-75
2023/11/11 11:08:13;;;;;;;2.03;1.30;;;;;;;7.60;100.00;99412.91;5036118;28;20053;-74
2023/11/11 11:11:05;;;;;;;6.03;1.63;;;;;;;7.66;100.00;99425.78;5050197;28;20064;-75
2023/11/11 11:13:36;;;;;;;3.67;1.20;;;;;;;7.75;100.00;99420.03;5044224;28;20059;-75
2023/11/11 11:16:05;;;;;;;2.08;1.42;;;;;;;7.83;100.00;99406.50;5064872;28;20049;-75
2023/11/11 11:18:36;;;;;;;3.70;1.70;;;;;;;7.97;100.00;99425.06;5050180;28;20460;-75
2023/11/11 11:21:04;;;;;;;8.05;1.95;;;;;;;7.91;100.00;99418.31;5046920;28;20048;-75
2023/11/11 11:23:36;;;;;;;5.25;2.40;;;;;;;7.97;100.00;99425.06;5044762;28;20425;-74
2023/11/11 11:26:10;;;;;;;2.58;1.60;;;;;;;8.13;100.00;99422.50;5050510;28;20053;-74
2023/11/11 11:28:41;;;;;;;4.05;1.40;;;;;;;8.22;100.00;99429.91;5047471;28;20048;-73
2023/11/11 11:31:09;;;;;;;4.53;1.80;;;;;;;8.14;100.00;99425.06;5041166;28;20108;-75
2023/11/11 11:33:41;;;;;;;3.78;1.75;;;;;;;8.20;100.00;99427.34;5042443;28;20045;-73
2023/11/11 11:36:14;;;;;;;4.70;1.80;;;;;;;8.21;100.00;99423.78;5062509;28;20052;-74
2023/11/11 11:38:42;;;;;;;7.55;1.80;;;;;;;8.25;100.00;99424.47;5047015;28;20043;-74
2023/11/11 11:41:13;;;;;;;5.13;1.60;;;;;;;8.16;100.00;99430.25;5031248;28;20049;-74
2023/11/11 11:43:41;;;;;;;;;;;;;;;8.08;100.00;99431.50;5044887;28;20505;-73
2023/11/11 11:46:11;;;;;;;5.70;1.85;;;;;;;8.02;100.00;99428.34;5051573;28;19921;-76